sensor_id;sensor_type;location;lat;lon;timestamp;temperature;humidity
45409;DHT22;31162;51.076;3.784;2024-03-22T00:01:54;13.80;99.90
45409;DHT22;31162;51.076;3.784;2024-03-22T00:04:20;13.70;99.90
45409;DHT22;31162;51.076;3.784;2024-03-22T00:06:47;13.70;99.90
45409;DHT22;31162;51.076;3.784;2024-03-22T00:09:14;13.70;99.90
45409;DHT22;31162;51.076;3.784;2024-03-22T00:11:40;13.60;99.90
45409;DHT22;31162;51.076;3.784;2024-03-22T00:14:06;13.50;99.90
45409;DHT22;31162;51.076;3.784;2024-03-22T00:16:33;13.40;99.90
45409;DHT22;31162;51.076;3.784;2024-03-22T00:18:58;13.40;99.90
45409;DHT22;31162;51.076;3.784;2024-03-22T00:21:24;13.30;99.90
45409;DHT22;31162;51.076;3.784;2024-03-22T00:23:50;13.20;99.90
45409;DHT22;31162;51.076;3.784;2024-03-22T00:26:16;13.20;99.90
45409;DHT22;31162;51.076;3.784;2024-03-22T00:28:42;13.10;99.90
45409;DHT22;31162;51.076;3.784;2024-03-22T00:31:08;13.00;99.90
45409;DHT22;31162;51.076;3.784;2024-03-22T00:33:34;13.10;99.90
45409;DHT22;31162;51.076;3.784;2024-03-22T00:36:00;13.10;99.90
45409;DHT22;31162;51.076;3.784;2024-03-22T00:38:25;13.20;99.90
45409;DHT22;31162;51.076;3.784;2024-03-22T00:40:51;13.20;99.90
45409;DHT22;31162;51.076;3.784;2024-03-22T00:43:17;13.40;99.90
45409;DHT22;31162;51.076;3.784;2024-03-22T00:45:42;13.30;99.90
45409;DHT22;31162;51.076;3.784;2024-03-22T00:48:08;13.30;99.90
45409;DHT22;31162;51.076;3.784;2024-03-22T00:50:34;13.40;99.90
45409;DHT22;31162;51.076;3.784;2024-03-22T00:52:59;13.40;99.90
45409;DHT22;31162;51.076;3.784;2024-03-22T00:55:25;13.40;99.90
45409;DHT22;31162;51.076;3.784;2024-03-22T00:57:51;13.30;99.90
45409;DHT22;31162;51.076;3.784;2024-03-22T01:00:17;13.20;99.90
45409;DHT22;31162;51.076;3.784;2024-03-22T01:02:43;13.20;99.90
45409;DHT22;31162;51.076;3.784;2024-03-22T01:05:09;13.30;99.90
45409;DHT22;31162;51.076;3.784;2024-03-22T01:07:36;13.20;99.90
45409;DHT22;31162;51.076;3.784;2024-03-22T01:10:02;13.00;99.90
45409;DHT22;31162;51.076;3.784;2024-03-22T01:12:28;12.80;99.90
45409;DHT22;31162;51.076;3.784;2024-03-22T01:14:54;12.60;99.90
45409;DHT22;31162;51.076;3.784;2024-03-22T01:17:19;12.50;99.90
45409;DHT22;31162;51.076;3.784;2024-03-22T01:19:45;12.50;99.90
45409;DHT22;31162;51.076;3.784;2024-03-22T01:22:11;12.40;99.90
45409;DHT22;31162;51.076;3.784;2024-03-22T01:24:36;12.30;99.90
45409;DHT22;31162;51.076;3.784;2024-03-22T01:27:02;12.20;99.90
45409;DHT22;31162;51.076;3.784;2024-03-22T01:29:27;12.10;99.90
45409;DHT22;31162;51.076;3.784;2024-03-22T01:31:56;12.10;99.90
45409;DHT22;31162;51.076;3.784;2024-03-22T01:34:21;12.10;99.90
45409;DHT22;31162;51.076;3.784;2024-03-22T01:36:47;12.20;99.90
45409;DHT22;31162;51.076;3.784;2024-03-22T01:39:13;12.20;99.90
45409;DHT22;31162;51.076;3.784;2024-03-22T01:41:39;12.20;99.90
45409;DHT22;31162;51.076;3.784;2024-03-22T01:44:05;12.20;99.90
45409;DHT22;31162;51.076;3.784;2024-03-22T01:46:31;12.30;99.90
45409;DHT22;31162;51.076;3.784;2024-03-22T01:48:56;12.40;99.90
45409;DHT22;31162;51.076;3.784;2024-03-22T01:51:22;12.30;99.90
45409;DHT22;31162;51.076;3.784;2024-03-22T01:53:48;12.30;99.90
45409;DHT22;31162;51.076;3.784;2024-03-22T01:56:14;12.20;99.90
45409;DHT22;31162;51.076;3.784;2024-03-22T01:58:40;12.10;99.90
45409;DHT22;31162;51.076;3.784;2024-03-22T02:01:06;12.10;99.90
45409;DHT22;31162;51.076;3.784;2024-03-22T02:03:32;12.10;99.90
45409;DHT22;31162;51.076;3.784;2024-03-22T02:05:57;12.10;99.90
45409;DHT22;31162;51.076;3.784;2024-03-22T02:08:23;12.00;99.90
45409;DHT22;31162;51.076;3.784;2024-03-22T02:10:48;12.10;99.90
45409;DHT22;31162;51.076;3.784;2024-03-22T02:13:14;12.00;99.90
45409;DHT22;31162;51.076;3.784;2024-03-22T02:15:40;12.00;99.90
45409;DHT22;31162;51.076;3.784;2024-03-22T02:18:05;12.10;99.90
45409;DHT22;31162;51.076;3.784;2024-03-22T02:20:31;12.00;99.90
45409;DHT22;31162;51.076;3.784;2024-03-22T02:22:57;12.00;99.90
45409;DHT22;31162;51.076;3.784;2024-03-22T02:25:22;12.00;99.90
45409;DHT22;31162;51.076;3.784;2024-03-22T02:27:48;11.90;99.90
45409;DHT22;31162;51.076;3.784;2024-03-22T02:30:16;12.00;99.90
45409;DHT22;31162;51.076;3.784;2024-03-22T02:32:42;11.90;99.90
45409;DHT22;31162;51.076;3.784;2024-03-22T02:35:08;11.90;99.90
45409;DHT22;31162;51.076;3.784;2024-03-22T02:37:33;11.90;99.90
45409;DHT22;31162;51.076;3.784;2024-03-22T02:39:59;12.00;99.90
45409;DHT22;31162;51.076;3.784;2024-03-22T02:42:25;12.00;99.90
45409;DHT22;31162;51.076;3.784;2024-03-22T02:44:50;12.00;99.90
45409;DHT22;31162;51.076;3.784;2024-03-22T02:47:16;12.00;99.90
45409;DHT22;31162;51.076;3.784;2024-03-22T02:49:41;12.00;99.90
45409;DHT22;31162;51.076;3.784;2024-03-22T02:52:07;11.90;99.90
45409;DHT22;31162;51.076;3.784;2024-03-22T02:54:33;11.90;99.90
45409;DHT22;31162;51.076;3.784;2024-03-22T02:56:58;11.90;99.90
45409;DHT22;31162;51.076;3.784;2024-03-22T02:59:27;11.90;99.90
45409;DHT22;31162;51.076;3.784;2024-03-22T03:01:53;11.80;99.90
45409;DHT22;31162;51.076;3.784;2024-03-22T03:04:19;11.80;99.90
45409;DHT22;31162;51.076;3.784;2024-03-22T03:06:44;11.80;99.90
45409;DHT22;31162;51.076;3.784;2024-03-22T03:09:12;11.70;99.90
45409;DHT22;31162;51.076;3.784;2024-03-22T03:11:39;11.70;99.90
45409;DHT22;31162;51.076;3.784;2024-03-22T03:14:05;11.70;99.90
45409;DHT22;31162;51.076;3.784;2024-03-22T03:16:30;11.60;99.90
45409;DHT22;31162;51.076;3.784;2024-03-22T03:18:56;11.60;99.90
45409;DHT22;31162;51.076;3.784;2024-03-22T03:21:21;11.60;99.90
45409;DHT22;31162;51.076;3.784;2024-03-22T03:23:47;11.70;99.90
45409;DHT22;31162;51.076;3.784;2024-03-22T03:26:13;11.70;99.90
45409;DHT22;31162;51.076;3.784;2024-03-22T03:28:38;11.70;99.90
45409;DHT22;31162;51.076;3.784;2024-03-22T03:31:04;11.80;99.90
45409;DHT22;31162;51.076;3.784;2024-03-22T03:33:30;11.80;99.90
45409;DHT22;31162;51.076;3.784;2024-03-22T03:35:56;11.70;99.90
45409;DHT22;31162;51.076;3.784;2024-03-22T03:38:21;11.70;99.90
45409;DHT22;31162;51.076;3.784;2024-03-22T03:40:47;11.70;99.90
45409;DHT22;31162;51.076;3.784;2024-03-22T03:43:13;11.70;99.90
45409;DHT22;31162;51.076;3.784;2024-03-22T03:45:39;11.70;99.90
45409;DHT22;31162;51.076;3.784;2024-03-22T03:48:05;11.70;99.90
45409;DHT22;31162;51.076;3.784;2024-03-22T03:50:30;11.70;99.90
45409;DHT22;31162;51.076;3.784;2024-03-22T03:52:56;11.80;99.90
45409;DHT22;31162;51.076;3.784;2024-03-22T03:55:22;11.80;99.90
45409;DHT22;31162;51.076;3.784;2024-03-22T03:57:50;11.70;99.90
45409;DHT22;31162;51.076;3.784;2024-03-22T04:00:17;11.70;99.90
45409;DHT22;31162;51.076;3.784;2024-03-22T04:02:43;11.60;99.90
45409;DHT22;31162;51.076;3.784;2024-03-22T04:05:08;11.60;99.90
45409;DHT22;31162;51.076;3.784;2024-03-22T04:07:34;11.60;99.90
45409;DHT22;31162;51.076;3.784;2024-03-22T04:09:59;11.60;99.90
45409;DHT22;31162;51.076;3.784;2024-03-22T04:12:26;11.60;99.90
45409;DHT22;31162;51.076;3.784;2024-03-22T04:14:52;11.60;99.90
45409;DHT22;31162;51.076;3.784;2024-03-22T04:17:18;11.60;99.90
45409;DHT22;31162;51.076;3.784;2024-03-22T04:19:43;11.50;99.90
45409;DHT22;31162;51.076;3.784;2024-03-22T04:22:09;11.60;99.90
45409;DHT22;31162;51.076;3.784;2024-03-22T04:24:35;11.60;99.90
45409;DHT22;31162;51.076;3.784;2024-03-22T04:27:00;11.60;99.90
45409;DHT22;31162;51.076;3.784;2024-03-22T04:29:26;11.60;99.90
45409;DHT22;31162;51.076;3.784;2024-03-22T04:31:51;11.70;99.90
45409;DHT22;31162;51.076;3.784;2024-03-22T04:34:17;11.70;99.90
45409;DHT22;31162;51.076;3.784;2024-03-22T04:36:43;11.70;99.90
45409;DHT22;31162;51.076;3.784;2024-03-22T04:39:09;11.70;99.90
45409;DHT22;31162;51.076;3.784;2024-03-22T04:41:35;11.70;99.90
45409;DHT22;31162;51.076;3.784;2024-03-22T04:44:00;11.70;99.90
45409;DHT22;31162;51.076;3.784;2024-03-22T04:46:26;11.70;99.90
45409;DHT22;31162;51.076;3.784;2024-03-22T04:48:52;11.80;99.90
45409;DHT22;31162;51.076;3.784;2024-03-22T04:51:17;11.80;99.90
45409;DHT22;31162;51.076;3.784;2024-03-22T04:53:43;11.90;99.90
45409;DHT22;31162;51.076;3.784;2024-03-22T04:56:09;12.00;99.90
45409;DHT22;31162;51.076;3.784;2024-03-22T04:58:35;12.00;99.90
45409;DHT22;31162;51.076;3.784;2024-03-22T05:01:01;12.10;99.90
45409;DHT22;31162;51.076;3.784;2024-03-22T05:03:26;12.00;99.90
45409;DHT22;31162;51.076;3.784;2024-03-22T05:05:52;12.00;99.90
45409;DHT22;31162;51.076;3.784;2024-03-22T05:08:18;12.00;99.90
45409;DHT22;31162;51.076;3.784;2024-03-22T05:10:43;12.00;99.90
45409;DHT22;31162;51.076;3.784;2024-03-22T05:13:09;12.10;99.90
45409;DHT22;31162;51.076;3.784;2024-03-22T05:15:35;12.10;99.90
45409;DHT22;31162;51.076;3.784;2024-03-22T05:18:00;12.00;99.90
45409;DHT22;31162;51.076;3.784;2024-03-22T05:20:26;11.90;99.90
45409;DHT22;31162;51.076;3.784;2024-03-22T05:22:52;11.90;99.90
45409;DHT22;31162;51.076;3.784;2024-03-22T05:25:18;11.80;99.90
45409;DHT22;31162;51.076;3.784;2024-03-22T05:27:44;11.70;99.90
45409;DHT22;31162;51.076;3.784;2024-03-22T05:30:11;11.70;99.90
45409;DHT22;31162;51.076;3.784;2024-03-22T05:32:37;11.70;99.90
45409;DHT22;31162;51.076;3.784;2024-03-22T05:35:04;11.70;99.90
45409;DHT22;31162;51.076;3.784;2024-03-22T05:37:30;11.60;99.90
45409;DHT22;31162;51.076;3.784;2024-03-22T05:39:56;11.60;99.90
45409;DHT22;31162;51.076;3.784;2024-03-22T05:42:21;11.60;99.90
45409;DHT22;31162;51.076;3.784;2024-03-22T05:44:47;11.70;99.90
45409;DHT22;31162;51.076;3.784;2024-03-22T05:47:13;11.80;99.90
45409;DHT22;31162;51.076;3.784;2024-03-22T05:49:39;11.80;99.90
45409;DHT22;31162;51.076;3.784;2024-03-22T05:52:05;11.60;99.90
45409;DHT22;31162;51.076;3.784;2024-03-22T05:54:30;11.60;99.90
45409;DHT22;31162;51.076;3.784;2024-03-22T05:56:56;11.60;99.90
45409;DHT22;31162;51.076;3.784;2024-03-22T05:59:22;11.50;99.90
45409;DHT22;31162;51.076;3.784;2024-03-22T06:01:47;11.60;99.90
45409;DHT22;31162;51.076;3.784;2024-03-22T06:04:13;11.60;99.90
45409;DHT22;31162;51.076;3.784;2024-03-22T06:06:39;11.70;99.90
45409;DHT22;31162;51.076;3.784;2024-03-22T06:09:05;11.70;99.90
45409;DHT22;31162;51.076;3.784;2024-03-22T06:11:36;11.60;99.90
45409;DHT22;31162;51.076;3.784;2024-03-22T06:14:02;11.70;99.90
45409;DHT22;31162;51.076;3.784;2024-03-22T06:16:27;11.70;99.90
45409;DHT22;31162;51.076;3.784;2024-03-22T06:18:53;11.70;99.90
45409;DHT22;31162;51.076;3.784;2024-03-22T06:21:19;11.70;99.90
45409;DHT22;31162;51.076;3.784;2024-03-22T06:23:50;11.60;99.90
45409;DHT22;31162;51.076;3.784;2024-03-22T06:26:16;11.70;99.90
45409;DHT22;31162;51.076;3.784;2024-03-22T06:28:41;11.70;99.90
45409;DHT22;31162;51.076;3.784;2024-03-22T06:31:07;11.70;99.90
45409;DHT22;31162;51.076;3.784;2024-03-22T06:33:33;11.70;99.90
45409;DHT22;31162;51.076;3.784;2024-03-22T06:35:59;11.80;99.90
45409;DHT22;31162;51.076;3.784;2024-03-22T06:38:25;11.70;99.90
45409;DHT22;31162;51.076;3.784;2024-03-22T06:40:51;11.70;99.90
45409;DHT22;31162;51.076;3.784;2024-03-22T06:43:16;11.70;99.90
45409;DHT22;31162;51.076;3.784;2024-03-22T06:45:42;11.80;99.90
45409;DHT22;31162;51.076;3.784;2024-03-22T06:48:08;11.90;99.90
45409;DHT22;31162;51.076;3.784;2024-03-22T06:50:33;12.00;99.90
45409;DHT22;31162;51.076;3.784;2024-03-22T06:52:59;11.90;99.90
45409;DHT22;31162;51.076;3.784;2024-03-22T06:55:24;11.90;99.90
45409;DHT22;31162;51.076;3.784;2024-03-22T06:57:50;11.80;99.90
45409;DHT22;31162;51.076;3.784;2024-03-22T07:00:18;11.80;99.90
45409;DHT22;31162;51.076;3.784;2024-03-22T07:02:44;11.70;99.90
45409;DHT22;31162;51.076;3.784;2024-03-22T07:05:10;11.70;99.90
45409;DHT22;31162;51.076;3.784;2024-03-22T07:07:36;11.80;99.90
45409;DHT22;31162;51.076;3.784;2024-03-22T07:10:05;11.90;99.90
45409;DHT22;31162;51.076;3.784;2024-03-22T07:12:32;12.10;99.90
45409;DHT22;31162;51.076;3.784;2024-03-22T07:14:59;12.10;99.90
45409;DHT22;31162;51.076;3.784;2024-03-22T07:17:24;12.20;99.90
45409;DHT22;31162;51.076;3.784;2024-03-22T07:19:53;12.10;99.90
45409;DHT22;31162;51.076;3.784;2024-03-22T07:22:20;12.10;99.90
45409;DHT22;31162;51.076;3.784;2024-03-22T07:24:46;12.10;99.90
45409;DHT22;31162;51.076;3.784;2024-03-22T07:27:13;12.20;99.90
45409;DHT22;31162;51.076;3.784;2024-03-22T07:29:40;12.30;99.90
45409;DHT22;31162;51.076;3.784;2024-03-22T07:32:06;12.40;99.90
45409;DHT22;31162;51.076;3.784;2024-03-22T07:34:32;12.60;99.90
45409;DHT22;31162;51.076;3.784;2024-03-22T07:36:57;12.60;99.90
45409;DHT22;31162;51.076;3.784;2024-03-22T07:39:23;12.70;99.90
45409;DHT22;31162;51.076;3.784;2024-03-22T07:41:49;13.10;99.90
45409;DHT22;31162;51.076;3.784;2024-03-22T07:44:15;13.50;99.90
45409;DHT22;31162;51.076;3.784;2024-03-22T07:46:43;13.50;99.90
45409;DHT22;31162;51.076;3.784;2024-03-22T07:49:10;13.50;99.90
45409;DHT22;31162;51.076;3.784;2024-03-22T07:51:36;13.30;99.90
45409;DHT22;31162;51.076;3.784;2024-03-22T07:54:02;13.30;99.90
45409;DHT22;31162;51.076;3.784;2024-03-22T07:56:28;13.40;99.90
45409;DHT22;31162;51.076;3.784;2024-03-22T07:58:53;13.30;99.90
45409;DHT22;31162;51.076;3.784;2024-03-22T08:01:19;13.20;99.90
45409;DHT22;31162;51.076;3.784;2024-03-22T08:03:45;13.30;99.90
45409;DHT22;31162;51.076;3.784;2024-03-22T08:06:10;13.40;99.90
45409;DHT22;31162;51.076;3.784;2024-03-22T08:08:36;13.30;99.90
45409;DHT22;31162;51.076;3.784;2024-03-22T08:11:01;13.50;99.90
45409;DHT22;31162;51.076;3.784;2024-03-22T08:13:27;13.50;99.90
45409;DHT22;31162;51.076;3.784;2024-03-22T08:15:53;13.70;99.90
45409;DHT22;31162;51.076;3.784;2024-03-22T08:18:19;13.70;99.90
45409;DHT22;31162;51.076;3.784;2024-03-22T08:20:44;13.80;99.90
45409;DHT22;31162;51.076;3.784;2024-03-22T08:23:10;13.70;99.90
45409;DHT22;31162;51.076;3.784;2024-03-22T08:25:36;13.70;99.90
45409;DHT22;31162;51.076;3.784;2024-03-22T08:28:02;13.90;99.90
45409;DHT22;31162;51.076;3.784;2024-03-22T08:30:28;14.00;99.90
45409;DHT22;31162;51.076;3.784;2024-03-22T08:32:54;14.10;99.90
45409;DHT22;31162;51.076;3.784;2024-03-22T08:35:19;14.20;99.90
45409;DHT22;31162;51.076;3.784;2024-03-22T08:37:45;14.40;99.90
45409;DHT22;31162;51.076;3.784;2024-03-22T08:40:12;14.40;99.90
45409;DHT22;31162;51.076;3.784;2024-03-22T08:42:39;14.40;99.90
45409;DHT22;31162;51.076;3.784;2024-03-22T08:45:05;14.20;99.90
45409;DHT22;31162;51.076;3.784;2024-03-22T08:47:31;14.20;99.90
45409;DHT22;31162;51.076;3.784;2024-03-22T08:49:59;14.30;99.90
45409;DHT22;31162;51.076;3.784;2024-03-22T08:52:25;14.20;99.90
45409;DHT22;31162;51.076;3.784;2024-03-22T08:54:51;14.20;99.90
45409;DHT22;31162;51.076;3.784;2024-03-22T08:57:17;14.20;99.90
45409;DHT22;31162;51.076;3.784;2024-03-22T08:59:43;14.20;99.90
45409;DHT22;31162;51.076;3.784;2024-03-22T09:02:09;14.00;99.90
45409;DHT22;31162;51.076;3.784;2024-03-22T09:04:34;13.90;99.90
45409;DHT22;31162;51.076;3.784;2024-03-22T09:07:00;13.90;99.90
45409;DHT22;31162;51.076;3.784;2024-03-22T09:09:25;13.90;99.90
45409;DHT22;31162;51.076;3.784;2024-03-22T09:11:51;13.80;99.90
45409;DHT22;31162;51.076;3.784;2024-03-22T09:14:17;13.80;99.90
45409;DHT22;31162;51.076;3.784;2024-03-22T09:16:42;13.50;99.90
45409;DHT22;31162;51.076;3.784;2024-03-22T09:19:08;13.40;99.90
45409;DHT22;31162;51.076;3.784;2024-03-22T09:21:34;13.40;99.90
45409;DHT22;31162;51.076;3.784;2024-03-22T09:23:59;13.30;99.90
45409;DHT22;31162;51.076;3.784;2024-03-22T09:26:25;13.40;99.90
45409;DHT22;31162;51.076;3.784;2024-03-22T09:28:51;13.40;99.90
45409;DHT22;31162;51.076;3.784;2024-03-22T09:31:17;13.40;99.90
45409;DHT22;31162;51.076;3.784;2024-03-22T09:33:43;13.40;99.90
45409;DHT22;31162;51.076;3.784;2024-03-22T09:36:08;13.50;99.90
45409;DHT22;31162;51.076;3.784;2024-03-22T09:38:34;13.50;99.90
45409;DHT22;31162;51.076;3.784;2024-03-22T09:41:00;13.40;99.90
45409;DHT22;31162;51.076;3.784;2024-03-22T09:43:27;13.50;99.90
45409;DHT22;31162;51.076;3.784;2024-03-22T09:45:55;13.60;99.90
45409;DHT22;31162;51.076;3.784;2024-03-22T09:48:22;13.70;99.90
45409;DHT22;31162;51.076;3.784;2024-03-22T09:50:49;14.00;99.90
45409;DHT22;31162;51.076;3.784;2024-03-22T09:53:20;14.10;99.90
45409;DHT22;31162;51.076;3.784;2024-03-22T09:55:47;14.30;99.90
45409;DHT22;31162;51.076;3.784;2024-03-22T09:58:13;14.50;99.90
45409;DHT22;31162;51.076;3.784;2024-03-22T10:00:39;14.40;99.90
45409;DHT22;31162;51.076;3.784;2024-03-22T10:03:05;14.50;99.90
45409;DHT22;31162;51.076;3.784;2024-03-22T10:05:31;14.60;99.90
45409;DHT22;31162;51.076;3.784;2024-03-22T10:07:57;14.50;99.90
45409;DHT22;31162;51.076;3.784;2024-03-22T10:10:23;14.50;99.90
45409;DHT22;31162;51.076;3.784;2024-03-22T10:12:49;14.40;99.90
45409;DHT22;31162;51.076;3.784;2024-03-22T10:15:14;14.40;99.90
45409;DHT22;31162;51.076;3.784;2024-03-22T10:17:41;14.30;99.90
45409;DHT22;31162;51.076;3.784;2024-03-22T10:20:06;14.40;99.90
45409;DHT22;31162;51.076;3.784;2024-03-22T10:23:02;14.50;99.90
45409;DHT22;31162;51.076;3.784;2024-03-22T10:25:28;14.40;99.90
45409;DHT22;31162;51.076;3.784;2024-03-22T10:27:54;14.10;99.90
45409;DHT22;31162;51.076;3.784;2024-03-22T10:30:21;14.10;99.90
45409;DHT22;31162;51.076;3.784;2024-03-22T10:32:48;14.00;99.90
45409;DHT22;31162;51.076;3.784;2024-03-22T10:35:15;14.10;99.90
45409;DHT22;31162;51.076;3.784;2024-03-22T10:37:40;14.10;99.90
45409;DHT22;31162;51.076;3.784;2024-03-22T10:40:07;14.10;99.90
45409;DHT22;31162;51.076;3.784;2024-03-22T10:42:38;14.00;99.90
45409;DHT22;31162;51.076;3.784;2024-03-22T10:45:13;14.00;99.90
45409;DHT22;31162;51.076;3.784;2024-03-22T10:47:39;14.00;99.90
45409;DHT22;31162;51.076;3.784;2024-03-22T10:50:07;14.10;99.90
45409;DHT22;31162;51.076;3.784;2024-03-22T10:52:54;14.10;99.90
45409;DHT22;31162;51.076;3.784;2024-03-22T10:55:27;14.20;99.90
45409;DHT22;31162;51.076;3.784;2024-03-22T10:57:59;14.40;99.90
45409;DHT22;31162;51.076;3.784;2024-03-22T11:00:33;14.40;99.90
45409;DHT22;31162;51.076;3.784;2024-03-22T11:02:59;14.30;99.90
45409;DHT22;31162;51.076;3.784;2024-03-22T11:05:27;14.20;99.90
45409;DHT22;31162;51.076;3.784;2024-03-22T11:08:05;14.20;99.90
45409;DHT22;31162;51.076;3.784;2024-03-22T11:10:35;14.20;99.90
45409;DHT22;31162;51.076;3.784;2024-03-22T11:13:04;14.30;99.90
45409;DHT22;31162;51.076;3.784;2024-03-22T11:15:31;14.50;99.90
45409;DHT22;31162;51.076;3.784;2024-03-22T11:17:57;14.60;99.90
45409;DHT22;31162;51.076;3.784;2024-03-22T11:20:23;14.50;99.90
45409;DHT22;31162;51.076;3.784;2024-03-22T11:22:51;14.40;99.90
45409;DHT22;31162;51.076;3.784;2024-03-22T11:25:16;14.40;99.90
45409;DHT22;31162;51.076;3.784;2024-03-22T11:27:43;14.40;99.90
45409;DHT22;31162;51.076;3.784;2024-03-22T11:30:09;14.50;99.90
45409;DHT22;31162;51.076;3.784;2024-03-22T11:32:34;14.70;99.90
45409;DHT22;31162;51.076;3.784;2024-03-22T11:35:11;14.90;99.90
45409;DHT22;31162;51.076;3.784;2024-03-22T11:37:40;14.90;99.90
45409;DHT22;31162;51.076;3.784;2024-03-22T11:40:09;15.20;99.90
45409;DHT22;31162;51.076;3.784;2024-03-22T11:42:39;15.30;99.90
45409;DHT22;31162;51.076;3.784;2024-03-22T11:45:06;15.20;99.90
45409;DHT22;31162;51.076;3.784;2024-03-22T11:47:33;14.90;99.90
45409;DHT22;31162;51.076;3.784;2024-03-22T11:49:59;14.80;99.90
45409;DHT22;31162;51.076;3.784;2024-03-22T11:52:26;14.80;99.90
45409;DHT22;31162;51.076;3.784;2024-03-22T11:54:55;14.80;99.90
45409;DHT22;31162;51.076;3.784;2024-03-22T11:57:21;14.80;99.90
45409;DHT22;31162;51.076;3.784;2024-03-22T11:59:47;14.70;99.90
45409;DHT22;31162;51.076;3.784;2024-03-22T12:02:13;14.60;99.90
45409;DHT22;31162;51.076;3.784;2024-03-22T12:04:46;14.70;99.90
45409;DHT22;31162;51.076;3.784;2024-03-22T12:07:17;14.70;99.90
45409;DHT22;31162;51.076;3.784;2024-03-22T12:09:43;14.70;99.90
45409;DHT22;31162;51.076;3.784;2024-03-22T12:12:11;14.80;99.90
45409;DHT22;31162;51.076;3.784;2024-03-22T12:14:36;14.60;99.90
45409;DHT22;31162;51.076;3.784;2024-03-22T12:17:02;14.40;99.90
45409;DHT22;31162;51.076;3.784;2024-03-22T12:19:29;14.40;99.90
45409;DHT22;31162;51.076;3.784;2024-03-22T12:21:54;14.30;99.90
45409;DHT22;31162;51.076;3.784;2024-03-22T12:24:21;14.20;99.90
45409;DHT22;31162;51.076;3.784;2024-03-22T12:26:47;13.90;99.90
45409;DHT22;31162;51.076;3.784;2024-03-22T12:29:14;13.90;99.90
45409;DHT22;31162;51.076;3.784;2024-03-22T12:31:41;13.80;99.90
45409;DHT22;31162;51.076;3.784;2024-03-22T12:34:07;13.80;99.90
45409;DHT22;31162;51.076;3.784;2024-03-22T12:36:32;13.70;99.90
45409;DHT22;31162;51.076;3.784;2024-03-22T12:38:58;13.80;99.90
45409;DHT22;31162;51.076;3.784;2024-03-22T12:41:23;13.90;99.90
45409;DHT22;31162;51.076;3.784;2024-03-22T12:43:49;13.80;99.90
45409;DHT22;31162;51.076;3.784;2024-03-22T12:46:15;13.90;99.90
45409;DHT22;31162;51.076;3.784;2024-03-22T12:48:41;13.90;99.90
45409;DHT22;31162;51.076;3.784;2024-03-22T12:51:07;13.90;99.90
45409;DHT22;31162;51.076;3.784;2024-03-22T12:53:33;13.80;99.90
45409;DHT22;31162;51.076;3.784;2024-03-22T12:55:58;13.80;99.90
45409;DHT22;31162;51.076;3.784;2024-03-22T12:58:24;13.80;99.90
45409;DHT22;31162;51.076;3.784;2024-03-22T13:00:49;13.70;99.90
45409;DHT22;31162;51.076;3.784;2024-03-22T13:03:15;13.60;99.90
45409;DHT22;31162;51.076;3.784;2024-03-22T13:05:41;13.50;99.90
45409;DHT22;31162;51.076;3.784;2024-03-22T13:08:07;13.50;99.90
45409;DHT22;31162;51.076;3.784;2024-03-22T13:10:33;13.30;99.90
45409;DHT22;31162;51.076;3.784;2024-03-22T13:12:59;13.30;99.90
45409;DHT22;31162;51.076;3.784;2024-03-22T13:15:24;13.40;99.90
45409;DHT22;31162;51.076;3.784;2024-03-22T13:17:51;13.50;99.90
45409;DHT22;31162;51.076;3.784;2024-03-22T13:20:18;13.60;99.90
45409;DHT22;31162;51.076;3.784;2024-03-22T13:22:44;13.60;99.90
45409;DHT22;31162;51.076;3.784;2024-03-22T13:25:10;13.60;99.90
45409;DHT22;31162;51.076;3.784;2024-03-22T13:27:37;13.50;99.90
45409;DHT22;31162;51.076;3.784;2024-03-22T13:30:09;13.40;99.90
45409;DHT22;31162;51.076;3.784;2024-03-22T13:32:38;13.30;99.90
45409;DHT22;31162;51.076;3.784;2024-03-22T13:35:05;13.30;99.90
45409;DHT22;31162;51.076;3.784;2024-03-22T13:37:31;13.40;99.90
45409;DHT22;31162;51.076;3.784;2024-03-22T13:39:57;13.50;99.90
45409;DHT22;31162;51.076;3.784;2024-03-22T13:42:23;13.40;99.90
45409;DHT22;31162;51.076;3.784;2024-03-22T13:44:49;13.40;99.90
45409;DHT22;31162;51.076;3.784;2024-03-22T13:47:15;13.40;99.90
45409;DHT22;31162;51.076;3.784;2024-03-22T13:49:40;13.30;99.90
45409;DHT22;31162;51.076;3.784;2024-03-22T13:52:10;13.10;99.90
45409;DHT22;31162;51.076;3.784;2024-03-22T13:54:36;12.90;99.90
45409;DHT22;31162;51.076;3.784;2024-03-22T13:57:02;12.90;99.90
45409;DHT22;31162;51.076;3.784;2024-03-22T13:59:30;13.00;99.90
45409;DHT22;31162;51.076;3.784;2024-03-22T14:01:56;13.10;99.90
45409;DHT22;31162;51.076;3.784;2024-03-22T14:04:25;13.10;99.90
45409;DHT22;31162;51.076;3.784;2024-03-22T14:06:51;13.20;99.90
45409;DHT22;31162;51.076;3.784;2024-03-22T14:09:17;13.00;99.90
45409;DHT22;31162;51.076;3.784;2024-03-22T14:11:43;12.90;99.90
45409;DHT22;31162;51.076;3.784;2024-03-22T14:14:09;12.90;99.90
45409;DHT22;31162;51.076;3.784;2024-03-22T14:16:39;12.80;99.90
45409;DHT22;31162;51.076;3.784;2024-03-22T14:19:05;12.80;99.90
45409;DHT22;31162;51.076;3.784;2024-03-22T14:21:31;12.80;99.90
45409;DHT22;31162;51.076;3.784;2024-03-22T14:23:56;12.80;99.90
45409;DHT22;31162;51.076;3.784;2024-03-22T14:26:22;12.80;99.90
45409;DHT22;31162;51.076;3.784;2024-03-22T14:28:49;12.90;99.90
45409;DHT22;31162;51.076;3.784;2024-03-22T14:31:15;12.90;99.90
45409;DHT22;31162;51.076;3.784;2024-03-22T14:33:41;12.80;99.90
45409;DHT22;31162;51.076;3.784;2024-03-22T14:36:08;12.80;99.90
45409;DHT22;31162;51.076;3.784;2024-03-22T14:38:35;12.70;99.90
45409;DHT22;31162;51.076;3.784;2024-03-22T14:41:01;12.70;99.90
45409;DHT22;31162;51.076;3.784;2024-03-22T14:43:28;12.70;99.90
45409;DHT22;31162;51.076;3.784;2024-03-22T14:45:54;12.80;99.90
45409;DHT22;31162;51.076;3.784;2024-03-22T14:48:23;12.60;99.90
45409;DHT22;31162;51.076;3.784;2024-03-22T14:50:50;12.60;99.90
45409;DHT22;31162;51.076;3.784;2024-03-22T14:53:22;12.60;99.90
45409;DHT22;31162;51.076;3.784;2024-03-22T14:55:55;12.50;99.90
45409;DHT22;31162;51.076;3.784;2024-03-22T14:58:24;12.40;99.90
45409;DHT22;31162;51.076;3.784;2024-03-22T15:00:58;12.40;99.90
45409;DHT22;31162;51.076;3.784;2024-03-22T15:03:23;12.40;99.90
45409;DHT22;31162;51.076;3.784;2024-03-22T15:05:54;12.40;99.90
45409;DHT22;31162;51.076;3.784;2024-03-22T15:08:20;12.50;99.90
45409;DHT22;31162;51.076;3.784;2024-03-22T15:10:47;12.40;99.90
45409;DHT22;31162;51.076;3.784;2024-03-22T15:13:13;12.50;99.90
45409;DHT22;31162;51.076;3.784;2024-03-22T15:15:39;12.60;99.90
45409;DHT22;31162;51.076;3.784;2024-03-22T15:18:06;12.70;99.90
45409;DHT22;31162;51.076;3.784;2024-03-22T15:20:31;12.80;99.90
45409;DHT22;31162;51.076;3.784;2024-03-22T15:22:58;12.70;99.90
45409;DHT22;31162;51.076;3.784;2024-03-22T15:25:24;12.70;99.90